sensor_id;sensor_type;location;lat;lon;timestamp;P1;durP1;ratioP1;P2;durP2;ratioP2
42912;SDS011;50720;54.324;18.558;2023-05-14T00:01:30;8.70;;;5.65;;
42912;SDS011;50720;54.324;18.558;2023-05-14T00:04:02;11.00;;;5.78;;
42912;SDS011;50720;54.324;18.558;2023-05-14T00:06:32;11.57;;;5.10;;
42912;SDS011;50720;54.324;18.558;2023-05-14T00:09:02;5.63;;;4.60;;
42912;SDS011;50720;54.324;18.558;2023-05-14T00:11:32;11.05;;;4.90;;
42912;SDS011;50720;54.324;18.558;2023-05-14T00:14:02;6.67;;;5.57;;
42912;SDS011;50720;54.324;18.558;2023-05-14T00:16:32;10.73;;;5.88;;
42912;SDS011;50720;54.324;18.558;2023-05-14T00:19:02;9.38;;;4.97;;
42912;SDS011;50720;54.324;18.558;2023-05-14T00:21:32;18.15;;;6.15;;
42912;SDS011;50720;54.324;18.558;2023-05-14T00:24:01;8.88;;;4.40;;
42912;SDS011;50720;54.324;18.558;2023-05-14T00:26:31;12.98;;;6.00;;
42912;SDS011;50720;54.324;18.558;2023-05-14T00:29:01;9.63;;;5.67;;
42912;SDS011;50720;54.324;18.558;2023-05-14T00:31:30;13.10;;;5.55;;
42912;SDS011;50720;54.324;18.558;2023-05-14T00:34:01;9.80;;;5.88;;
42912;SDS011;50720;54.324;18.558;2023-05-14T00:36:30;6.63;;;5.30;;
42912;SDS011;50720;54.324;18.558;2023-05-14T00:39:00;14.80;;;5.97;;
42912;SDS011;50720;54.324;18.558;2023-05-14T00:41:29;9.05;;;5.75;;
42912;SDS011;50720;54.324;18.558;2023-05-14T00:43:59;9.10;;;5.03;;
42912;SDS011;50720;54.324;18.558;2023-05-14T00:46:29;7.22;;;5.38;;
42912;SDS011;50720;54.324;18.558;2023-05-14T00:48:58;8.18;;;5.65;;
42912;SDS011;50720;54.324;18.558;2023-05-14T00:53:58;8.73;;;5.72;;
42912;SDS011;50720;54.324;18.558;2023-05-14T00:56:28;17.00;;;6.63;;
42912;SDS011;50720;54.324;18.558;2023-05-14T00:58:58;9.20;;;5.72;;
42912;SDS011;50720;54.324;18.558;2023-05-14T01:01:27;10.00;;;5.93;;
42912;SDS011;50720;54.324;18.558;2023-05-14T01:03:57;11.63;;;6.55;;
42912;SDS011;50720;54.324;18.558;2023-05-14T01:06:33;11.00;;;5.85;;
42912;SDS011;50720;54.324;18.558;2023-05-14T01:09:13;7.63;;;5.82;;
42912;SDS011;50720;54.324;18.558;2023-05-14T01:11:51;10.50;;;6.28;;
42912;SDS011;50720;54.324;18.558;2023-05-14T01:14:27;10.50;;;6.35;;
42912;SDS011;50720;54.324;18.558;2023-05-14T01:17:03;12.48;;;6.00;;
42912;SDS011;50720;54.324;18.558;2023-05-14T01:19:36;9.73;;;6.28;;
42912;SDS011;50720;54.324;18.558;2023-05-14T01:22:09;12.63;;;5.80;;
42912;SDS011;50720;54.324;18.558;2023-05-14T01:24:39;13.27;;;6.35;;
42912;SDS011;50720;54.324;18.558;2023-05-14T01:27:09;24.60;;;6.00;;
42912;SDS011;50720;54.324;18.558;2023-05-14T01:29:46;14.35;;;6.45;;
42912;SDS011;50720;54.324;18.558;2023-05-14T01:32:20;7.38;;;5.38;;
42912;SDS011;50720;54.324;18.558;2023-05-14T01:34:53;9.05;;;5.63;;
42912;SDS011;50720;54.324;18.558;2023-05-14T01:37:26;9.65;;;5.57;;
42912;SDS011;50720;54.324;18.558;2023-05-14T01:39:57;10.48;;;5.90;;
42912;SDS011;50720;54.324;18.558;2023-05-14T01:42:28;12.82;;;6.38;;
42912;SDS011;50720;54.324;18.558;2023-05-14T01:44:58;11.30;;;5.88;;
42912;SDS011;50720;54.324;18.558;2023-05-14T01:47:28;11.65;;;6.13;;
42912;SDS011;50720;54.324;18.558;2023-05-14T01:49:57;10.55;;;6.47;;
42912;SDS011;50720;54.324;18.558;2023-05-14T01:52:28;10.23;;;5.88;;
42912;SDS011;50720;54.324;18.558;2023-05-14T01:54:58;8.73;;;5.80;;
42912;SDS011;50720;54.324;18.558;2023-05-14T01:57:27;11.98;;;6.03;;
42912;SDS011;50720;54.324;18.558;2023-05-14T01:59:57;10.67;;;6.43;;
42912;SDS011;50720;54.324;18.558;2023-05-14T02:02:27;9.82;;;6.30;;
42912;SDS011;50720;54.324;18.558;2023-05-14T02:04:56;12.02;;;5.70;;
42912;SDS011;50720;54.324;18.558;2023-05-14T02:07:26;13.30;;;7.05;;
42912;SDS011;50720;54.324;18.558;2023-05-14T02:09:57;10.90;;;6.00;;
42912;SDS011;50720;54.324;18.558;2023-05-14T02:12:26;9.35;;;6.85;;
42912;SDS011;50720;54.324;18.558;2023-05-14T02:14:56;8.73;;;6.03;;
42912;SDS011;50720;54.324;18.558;2023-05-14T02:17:25;13.05;;;6.38;;
42912;SDS011;50720;54.324;18.558;2023-05-14T02:19:55;8.43;;;5.30;;
42912;SDS011;50720;54.324;18.558;2023-05-14T02:22:24;8.70;;;5.75;;
42912;SDS011;50720;54.324;18.558;2023-05-14T02:24:56;11.63;;;6.18;;
42912;SDS011;50720;54.324;18.558;2023-05-14T02:29:55;8.63;;;5.78;;
42912;SDS011;50720;54.324;18.558;2023-05-14T02:32:26;8.02;;;6.00;;
42912;SDS011;50720;54.324;18.558;2023-05-14T02:34:56;8.38;;;6.60;;
42912;SDS011;50720;54.324;18.558;2023-05-14T02:37:26;13.82;;;7.35;;
42912;SDS011;50720;54.324;18.558;2023-05-14T02:39:57;8.60;;;6.55;;
42912;SDS011;50720;54.324;18.558;2023-05-14T02:44:56;10.95;;;6.78;;
42912;SDS011;50720;54.324;18.558;2023-05-14T02:47:25;12.85;;;6.65;;
42912;SDS011;50720;54.324;18.558;2023-05-14T02:49:55;9.07;;;6.80;;
42912;SDS011;50720;54.324;18.558;2023-05-14T02:52:25;11.82;;;7.25;;
42912;SDS011;50720;54.324;18.558;2023-05-14T02:54:56;13.05;;;7.82;;
42912;SDS011;50720;54.324;18.558;2023-05-14T02:57:26;13.77;;;6.88;;
42912;SDS011;50720;54.324;18.558;2023-05-14T02:59:56;14.57;;;6.80;;
42912;SDS011;50720;54.324;18.558;2023-05-14T03:02:25;14.18;;;7.25;;
42912;SDS011;50720;54.324;18.558;2023-05-14T03:04:56;8.55;;;5.95;;
42912;SDS011;50720;54.324;18.558;2023-05-14T03:07:25;10.38;;;6.45;;
42912;SDS011;50720;54.324;18.558;2023-05-14T03:09:55;11.55;;;6.78;;
42912;SDS011;50720;54.324;18.558;2023-05-14T03:12:26;9.93;;;6.05;;
42912;SDS011;50720;54.324;18.558;2023-05-14T03:14:56;16.17;;;6.93;;
42912;SDS011;50720;54.324;18.558;2023-05-14T03:17:25;11.90;;;6.70;;
42912;SDS011;50720;54.324;18.558;2023-05-14T03:19:55;15.25;;;7.05;;
42912;SDS011;50720;54.324;18.558;2023-05-14T03:22:24;14.93;;;7.45;;
42912;SDS011;50720;54.324;18.558;2023-05-14T03:24:55;12.70;;;6.82;;
42912;SDS011;50720;54.324;18.558;2023-05-14T03:27:25;10.00;;;7.30;;
42912;SDS011;50720;54.324;18.558;2023-05-14T03:29:55;13.00;;;7.47;;
42912;SDS011;50720;54.324;18.558;2023-05-14T03:32:25;10.48;;;6.40;;
42912;SDS011;50720;54.324;18.558;2023-05-14T03:34:55;10.97;;;7.47;;
42912;SDS011;50720;54.324;18.558;2023-05-14T03:37:24;14.75;;;7.75;;
42912;SDS011;50720;54.324;18.558;2023-05-14T03:39:54;13.40;;;8.75;;
42912;SDS011;50720;54.324;18.558;2023-05-14T03:42:24;16.52;;;8.75;;
42912;SDS011;50720;54.324;18.558;2023-05-14T03:44:54;12.45;;;7.88;;
42912;SDS011;50720;54.324;18.558;2023-05-14T03:47:24;17.52;;;8.77;;
42912;SDS011;50720;54.324;18.558;2023-05-14T03:49:54;16.15;;;8.13;;
42912;SDS011;50720;54.324;18.558;2023-05-14T03:52:24;21.35;;;9.32;;
42912;SDS011;50720;54.324;18.558;2023-05-14T03:54:53;12.57;;;8.05;;
42912;SDS011;50720;54.324;18.558;2023-05-14T03:57:24;12.35;;;6.75;;
42912;SDS011;50720;54.324;18.558;2023-05-14T03:59:54;14.27;;;7.90;;
42912;SDS011;50720;54.324;18.558;2023-05-14T04:02:23;12.27;;;8.02;;
42912;SDS011;50720;54.324;18.558;2023-05-14T04:04:53;10.68;;;7.22;;
42912;SDS011;50720;54.324;18.558;2023-05-14T04:07:22;11.32;;;7.00;;
42912;SDS011;50720;54.324;18.558;2023-05-14T04:09:52;11.88;;;7.30;;
42912;SDS011;50720;54.324;18.558;2023-05-14T04:12:21;13.25;;;7.20;;
42912;SDS011;50720;54.324;18.558;2023-05-14T04:14:53;16.45;;;7.70;;
42912;SDS011;50720;54.324;18.558;2023-05-14T04:17:22;11.88;;;8.10;;
42912;SDS011;50720;54.324;18.558;2023-05-14T04:19:52;13.75;;;8.30;;
42912;SDS011;50720;54.324;18.558;2023-05-14T04:22:22;17.45;;;8.13;;
42912;SDS011;50720;54.324;18.558;2023-05-14T04:24:52;21.40;;;8.60;;
42912;SDS011;50720;54.324;18.558;2023-05-14T04:27:21;14.05;;;8.88;;
42912;SDS011;50720;54.324;18.558;2023-05-14T04:29:52;13.40;;;8.70;;
42912;SDS011;50720;54.324;18.558;2023-05-14T04:32:22;16.52;;;8.75;;
42912;SDS011;50720;54.324;18.558;2023-05-14T04:34:52;17.77;;;9.98;;
42912;SDS011;50720;54.324;18.558;2023-05-14T04:37:22;11.95;;;8.07;;
42912;SDS011;50720;54.324;18.558;2023-05-14T04:39:52;15.07;;;8.07;;
42912;SDS011;50720;54.324;18.558;2023-05-14T04:42:21;12.80;;;8.50;;
42912;SDS011;50720;54.324;18.558;2023-05-14T04:44:53;15.75;;;7.95;;
42912;SDS011;50720;54.324;18.558;2023-05-14T04:47:22;13.48;;;8.43;;
42912;SDS011;50720;54.324;18.558;2023-05-14T04:49:52;12.90;;;7.97;;
42912;SDS011;50720;54.324;18.558;2023-05-14T04:52:22;15.73;;;7.90;;
42912;SDS011;50720;54.324;18.558;2023-05-14T04:54:51;9.25;;;7.80;;
42912;SDS011;50720;54.324;18.558;2023-05-14T04:57:21;27.90;;;9.18;;
42912;SDS011;50720;54.324;18.558;2023-05-14T04:59:52;12.57;;;8.67;;
42912;SDS011;50720;54.324;18.558;2023-05-14T05:04:51;14.27;;;6.85;;
42912;SDS011;50720;54.324;18.558;2023-05-14T05:07:20;14.30;;;8.80;;
42912;SDS011;50720;54.324;18.558;2023-05-14T05:09:50;14.60;;;8.15;;
42912;SDS011;50720;54.324;18.558;2023-05-14T05:12:19;14.18;;;8.18;;
42912;SDS011;50720;54.324;18.558;2023-05-14T05:14:49;11.65;;;7.43;;
42912;SDS011;50720;54.324;18.558;2023-05-14T05:17:19;13.15;;;8.13;;
42912;SDS011;50720;54.324;18.558;2023-05-14T05:19:49;13.57;;;8.00;;
42912;SDS011;50720;54.324;18.558;2023-05-14T05:22:19;14.98;;;6.82;;
42912;SDS011;50720;54.324;18.558;2023-05-14T05:24:49;8.48;;;5.80;;
42912;SDS011;50720;54.324;18.558;2023-05-14T05:27:18;10.40;;;6.32;;
42912;SDS011;50720;54.324;18.558;2023-05-14T05:29:49;11.35;;;6.13;;
42912;SDS011;50720;54.324;18.558;2023-05-14T05:32:19;11.85;;;5.72;;
42912;SDS011;50720;54.324;18.558;2023-05-14T05:34:49;14.48;;;5.80;;
42912;SDS011;50720;54.324;18.558;2023-05-14T05:37:19;14.23;;;5.60;;
42912;SDS011;50720;54.324;18.558;2023-05-14T05:39:49;9.35;;;5.47;;
42912;SDS011;50720;54.324;18.558;2023-05-14T05:42:18;9.02;;;5.28;;
42912;SDS011;50720;54.324;18.558;2023-05-14T05:44:48;12.57;;;5.28;;
42912;SDS011;50720;54.324;18.558;2023-05-14T05:47:18;8.93;;;5.35;;
42912;SDS011;50720;54.324;18.558;2023-05-14T05:49:50;14.15;;;5.78;;
42912;SDS011;50720;54.324;18.558;2023-05-14T05:52:20;11.47;;;6.57;;
42912;SDS011;50720;54.324;18.558;2023-05-14T05:54:50;11.10;;;6.22;;
42912;SDS011;50720;54.324;18.558;2023-05-14T05:57:19;10.82;;;5.88;;
42912;SDS011;50720;54.324;18.558;2023-05-14T05:59:53;10.73;;;6.03;;
42912;SDS011;50720;54.324;18.558;2023-05-14T06:02:24;9.68;;;5.85;;
42912;SDS011;50720;54.324;18.558;2023-05-14T06:04:54;10.40;;;5.80;;
42912;SDS011;50720;54.324;18.558;2023-05-14T06:07:23;8.88;;;5.35;;
42912;SDS011;50720;54.324;18.558;2023-05-14T06:09:53;8.18;;;5.68;;
42912;SDS011;50720;54.324;18.558;2023-05-14T06:12:23;11.20;;;4.97;;
42912;SDS011;50720;54.324;18.558;2023-05-14T06:14:53;9.30;;;6.20;;
42912;SDS011;50720;54.324;18.558;2023-05-14T06:17:25;11.95;;;5.22;;
42912;SDS011;50720;54.324;18.558;2023-05-14T06:19:55;8.82;;;5.78;;
42912;SDS011;50720;54.324;18.558;2023-05-14T06:22:24;10.50;;;5.72;;
42912;SDS011;50720;54.324;18.558;2023-05-14T06:24:54;8.95;;;4.93;;
42912;SDS011;50720;54.324;18.558;2023-05-14T06:27:23;7.13;;;5.00;;
42912;SDS011;50720;54.324;18.558;2023-05-14T06:29:52;9.45;;;5.68;;
42912;SDS011;50720;54.324;18.558;2023-05-14T06:32:22;9.48;;;4.97;;
42912;SDS011;50720;54.324;18.558;2023-05-14T06:34:53;12.30;;;5.57;;
42912;SDS011;50720;54.324;18.558;2023-05-14T06:37:22;8.77;;;5.10;;
42912;SDS011;50720;54.324;18.558;2023-05-14T06:39:52;8.05;;;5.82;;
42912;SDS011;50720;54.324;18.558;2023-05-14T06:42:23;11.77;;;4.43;;
42912;SDS011;50720;54.324;18.558;2023-05-14T06:44:53;10.50;;;5.20;;
42912;SDS011;50720;54.324;18.558;2023-05-14T06:47:23;11.23;;;5.47;;
42912;SDS011;50720;54.324;18.558;2023-05-14T06:49:54;9.70;;;5.97;;
42912;SDS011;50720;54.324;18.558;2023-05-14T06:52:24;8.43;;;5.07;;
42912;SDS011;50720;54.324;18.558;2023-05-14T06:54:54;6.97;;;5.07;;
42912;SDS011;50720;54.324;18.558;2023-05-14T06:57:24;10.40;;;5.15;;
42912;SDS011;50720;54.324;18.558;2023-05-14T06:59:53;8.05;;;5.72;;
42912;SDS011;50720;54.324;18.558;2023-05-14T07:02:23;8.97;;;4.70;;
42912;SDS011;50720;54.324;18.558;2023-05-14T07:04:54;7.60;;;4.83;;
42912;SDS011;50720;54.324;18.558;2023-05-14T07:07:23;9.38;;;5.65;;
42912;SDS011;50720;54.324;18.558;2023-05-14T07:09:53;9.30;;;4.53;;
42912;SDS011;50720;54.324;18.558;2023-05-14T07:12:23;8.50;;;5.32;;
42912;SDS011;50720;54.324;18.558;2023-05-14T07:14:53;9.15;;;4.70;;
42912;SDS011;50720;54.324;18.558;2023-05-14T07:17:23;9.27;;;5.22;;
42912;SDS011;50720;54.324;18.558;2023-05-14T07:19:52;7.80;;;4.82;;
42912;SDS011;50720;54.324;18.558;2023-05-14T07:22:23;10.25;;;4.85;;
42912;SDS011;50720;54.324;18.558;2023-05-14T07:24:53;10.98;;;4.32;;
42912;SDS011;50720;54.324;18.558;2023-05-14T07:27:22;8.90;;;4.32;;
42912;SDS011;50720;54.324;18.558;2023-05-14T07:29:52;11.37;;;5.60;;
42912;SDS011;50720;54.324;18.558;2023-05-14T07:32:22;9.43;;;5.03;;
42912;SDS011;50720;54.324;18.558;2023-05-14T07:34:51;6.75;;;4.40;;
42912;SDS011;50720;54.324;18.558;2023-05-14T07:37:22;11.48;;;5.03;;
42912;SDS011;50720;54.324;18.558;2023-05-14T07:39:52;10.50;;;4.90;;
42912;SDS011;50720;54.324;18.558;2023-05-14T07:42:22;8.40;;;4.67;;
42912;SDS011;50720;54.324;18.558;2023-05-14T07:45:03;9.68;;;4.55;;
42912;SDS011;50720;54.324;18.558;2023-05-14T07:47:33;7.57;;;4.30;;
42912;SDS011;50720;54.324;18.558;2023-05-14T07:50:03;10.75;;;4.82;;
42912;SDS011;50720;54.324;18.558;2023-05-14T07:52:34;13.68;;;5.40;;
42912;SDS011;50720;54.324;18.558;2023-05-14T07:55:04;8.27;;;4.68;;
42912;SDS011;50720;54.324;18.558;2023-05-14T07:57:34;6.85;;;3.97;;
42912;SDS011;50720;54.324;18.558;2023-05-14T08:00:04;9.40;;;3.72;;
42912;SDS011;50720;54.324;18.558;2023-05-14T08:02:35;9.43;;;4.50;;
42912;SDS011;50720;54.324;18.558;2023-05-14T08:05:06;7.32;;;4.38;;
42912;SDS011;50720;54.324;18.558;2023-05-14T08:07:37;12.48;;;4.82;;
42912;SDS011;50720;54.324;18.558;2023-05-14T08:10:08;6.88;;;4.30;;
42912;SDS011;50720;54.324;18.558;2023-05-14T08:12:37;5.18;;;3.83;;
42912;SDS011;50720;54.324;18.558;2023-05-14T08:15:08;7.18;;;4.10;;
42912;SDS011;50720;54.324;18.558;2023-05-14T08:17:38;8.20;;;3.40;;
42912;SDS011;50720;54.324;18.558;2023-05-14T08:20:08;8.13;;;4.55;;
42912;SDS011;50720;54.324;18.558;2023-05-14T08:22:40;8.95;;;4.78;;
42912;SDS011;50720;54.324;18.558;2023-05-14T08:25:10;4.80;;;4.35;;
42912;SDS011;50720;54.324;18.558;2023-05-14T08:27:39;7.45;;;3.78;;
42912;SDS011;50720;54.324;18.558;2023-05-14T08:30:09;5.83;;;4.30;;
42912;SDS011;50720;54.324;18.558;2023-05-14T08:32:39;5.93;;;4.15;;
42912;SDS011;50720;54.324;18.558;2023-05-14T08:35:09;5.80;;;3.40;;
42912;SDS011;50720;54.324;18.558;2023-05-14T08:37:38;4.15;;;3.05;;
42912;SDS011;50720;54.324;18.558;2023-05-14T08:40:10;8.55;;;4.30;;
42912;SDS011;50720;54.324;18.558;2023-05-14T08:42:40;10.07;;;5.32;;
42912;SDS011;50720;54.324;18.558;2023-05-14T08:45:12;10.27;;;3.95;;
42912;SDS011;50720;54.324;18.558;2023-05-14T08:47:46;6.40;;;4.38;;
42912;SDS011;50720;54.324;18.558;2023-05-14T08:50:17;5.60;;;4.00;;
42912;SDS011;50720;54.324;18.558;2023-05-14T08:52:51;5.82;;;4.00;;
42912;SDS011;50720;54.324;18.558;2023-05-14T08:55:21;7.35;;;3.90;;
42912;SDS011;50720;54.324;18.558;2023-05-14T08:57:52;6.13;;;3.97;;
42912;SDS011;50720;54.324;18.558;2023-05-14T09:00:22;7.80;;;3.72;;
42912;SDS011;50720;54.324;18.558;2023-05-14T09:02:52;7.00;;;3.92;;
42912;SDS011;50720;54.324;18.558;2023-05-14T09:05:22;4.47;;;2.92;;
42912;SDS011;50720;54.324;18.558;2023-05-14T09:07:54;8.88;;;3.25;;
42912;SDS011;50720;54.324;18.558;2023-05-14T09:10:23;4.43;;;2.53;;
42912;SDS011;50720;54.324;18.558;2023-05-14T09:12:53;9.15;;;4.00;;
42912;SDS011;50720;54.324;18.558;2023-05-14T09:15:23;12.02;;;3.30;;
42912;SDS011;50720;54.324;18.558;2023-05-14T09:17:55;6.38;;;2.97;;
42912;SDS011;50720;54.324;18.558;2023-05-14T09:20:25;5.40;;;3.28;;
42912;SDS011;50720;54.324;18.558;2023-05-14T09:22:57;4.13;;;2.60;;
42912;SDS011;50720;54.324;18.558;2023-05-14T09:25:29;5.35;;;2.63;;
42912;SDS011;50720;54.324;18.558;2023-05-14T09:27:59;6.93;;;2.50;;
42912;SDS011;50720;54.324;18.558;2023-05-14T09:30:34;3.92;;;2.60;;
42912;SDS011;50720;54.324;18.558;2023-05-14T09:33:03;5.03;;;2.60;;
42912;SDS011;50720;54.324;18.558;2023-05-14T09:35:36;7.15;;;2.83;;
42912;SDS011;50720;54.324;18.558;2023-05-14T09:38:10;6.88;;;3.00;;
42912;SDS011;50720;54.324;18.558;2023-05-14T09:40:40;4.15;;;2.90;;
42912;SDS011;50720;54.324;18.558;2023-05-14T09:43:10;5.37;;;2.80;;
42912;SDS011;50720;54.324;18.558;2023-05-14T09:45:40;3.63;;;2.55;;
42912;SDS011;50720;54.324;18.558;2023-05-14T09:48:10;4.13;;;2.85;;
42912;SDS011;50720;54.324;18.558;2023-05-14T09:50:40;7.55;;;2.88;;
42912;SDS011;50720;54.324;18.558;2023-05-14T09:53:12;6.50;;;3.03;;
42912;SDS011;50720;54.324;18.558;2023-05-14T09:55:42;5.22;;;3.22;;
42912;SDS011;50720;54.324;18.558;2023-05-14T09:58:12;9.15;;;3.28;;
42912;SDS011;50720;54.324;18.558;2023-05-14T10:00:43;5.60;;;3.25;;
42912;SDS011;50720;54.324;18.558;2023-05-14T10:03:13;3.40;;;2.80;;
42912;SDS011;50720;54.324;18.558;2023-05-14T10:05:46;6.25;;;2.90;;
42912;SDS011;50720;54.324;18.558;2023-05-14T10:08:21;3.30;;;2.95;;
42912;SDS011;50720;54.324;18.558;2023-05-14T10:10:55;6.10;;;2.28;;
42912;SDS011;50720;54.324;18.558;2023-05-14T10:13:27;7.03;;;2.53;;
42912;SDS011;50720;54.324;18.558;2023-05-14T10:16:00;7.50;;;2.83;;
42912;SDS011;50720;54.324;18.558;2023-05-14T10:18:38;9.27;;;3.35;;
42912;SDS011;50720;54.324;18.558;2023-05-14T10:21:09;7.70;;;2.55;;
42912;SDS011;50720;54.324;18.558;2023-05-14T10:23:40;3.08;;;2.72;;
42912;SDS011;50720;54.324;18.558;2023-05-14T10:26:10;4.82;;;3.33;;
42912;SDS011;50720;54.324;18.558;2023-05-14T10:28:40;5.10;;;2.58;;
42912;SDS011;50720;54.324;18.558;2023-05-14T10:33:48;5.63;;;3.35;;
42912;SDS011;50720;54.324;18.558;2023-05-14T10:36:18;7.65;;;3.30;;
42912;SDS011;50720;54.324;18.558;2023-05-14T10:38:53;3.88;;;3.30;;
42912;SDS011;50720;54.324;18.558;2023-05-14T10:41:24;6.07;;;3.85;;
42912;SDS011;50720;54.324;18.558;2023-05-14T10:43:53;7.40;;;3.35;;
42912;SDS011;50720;54.324;18.558;2023-05-14T10:46:26;9.45;;;4.60;;
42912;SDS011;50720;54.324;18.558;2023-05-14T10:48:55;5.55;;;4.30;;
42912;SDS011;50720;54.324;18.558;2023-05-14T10:51:25;11.05;;;4.13;;
42912;SDS011;50720;54.324;18.558;2023-05-14T10:53:57;8.48;;;4.22;;
42912;SDS011;50720;54.324;18.558;2023-05-14T10:56:29;9.20;;;5.47;;
42912;SDS011;50720;54.324;18.558;2023-05-14T10:59:00;11.60;;;5.45;;
42912;SDS011;50720;54.324;18.558;2023-05-14T11:04:00;9.23;;;4.90;;
42912;SDS011;50720;54.324;18.558;2023-05-14T11:06:31;9.48;;;4.57;;
42912;SDS011;50720;54.324;18.558;2023-05-14T11:09:03;9.57;;;5.25;;
42912;SDS011;50720;54.324;18.558;2023-05-14T11:11:34;10.63;;;4.45;;
42912;SDS011;50720;54.324;18.558;2023-05-14T11:14:03;8.30;;;4.77;;
42912;SDS011;50720;54.324;18.558;2023-05-14T11:16:36;9.80;;;3.97;;
42912;SDS011;50720;54.324;18.558;2023-05-14T11:19:07;10.00;;;4.82;;
42912;SDS011;50720;54.324;18.558;2023-05-14T11:21:38;8.68;;;5.05;;
42912;SDS011;50720;54.324;18.558;2023-05-14T11:24:10;8.43;;;5.15;;
42912;SDS011;50720;54.324;18.558;2023-05-14T11:26:39;14.43;;;4.65;;
42912;SDS011;50720;54.324;18.558;2023-05-14T11:29:09;7.55;;;4.57;;
42912;SDS011;50720;54.324;18.558;2023-05-14T11:31:39;8.15;;;4.43;;
42912;SDS011;50720;54.324;18.558;2023-05-14T11:34:08;17.67;;;4.90;;
42912;SDS011;50720;54.324;18.558;2023-05-14T11:36:38;5.35;;;4.03;;
42912;SDS011;50720;54.324;18.558;2023-05-14T11:39:16;6.93;;;4.07;;
42912;SDS011;50720;54.324;18.558;2023-05-14T11:41:46;8.70;;;3.95;;
42912;SDS011;50720;54.324;18.558;2023-05-14T11:44:16;7.17;;;4.13;;
42912;SDS011;50720;54.324;18.558;2023-05-14T11:46:52;5.22;;;3.78;;
42912;SDS011;50720;54.324;18.558;2023-05-14T11:49:22;5.10;;;3.45;;
42912;SDS011;50720;54.324;18.558;2023-05-14T11:51:55;4.70;;;3.85;;
42912;SDS011;50720;54.324;18.558;2023-05-14T11:54:27;11.27;;;3.88;;
42912;SDS011;50720;54.324;18.558;2023-05-14T11:56:58;5.55;;;3.17;;
42912;SDS011;50720;54.324;18.558;2023-05-14T11:59:29;5.85;;;3.42;;
42912;SDS011;50720;54.324;18.558;2023-05-14T12:02:00;13.77;;;4.35;;
42912;SDS011;50720;54.324;18.558;2023-05-14T12:04:30;7.32;;;3.75;;
42912;SDS011;50720;54.324;18.558;2023-05-14T12:09:36;6.30;;;3.90;;
42912;SDS011;50720;54.324;18.558;2023-05-14T12:12:10;10.23;;;4.47;;
42912;SDS011;50720;54.324;18.558;2023-05-14T12:14:41;7.07;;;4.28;;
42912;SDS011;50720;54.324;18.558;2023-05-14T12:17:12;6.43;;;4.65;;
42912;SDS011;50720;54.324;18.558;2023-05-14T12:19:43;6.80;;;4.72;;
42912;SDS011;50720;54.324;18.558;2023-05-14T12:22:15;7.55;;;5.20;;
42912;SDS011;50720;54.324;18.558;2023-05-14T12:24:52;13.85;;;5.18;;
42912;SDS011;50720;54.324;18.558;2023-05-14T12:27:23;9.98;;;5.20;;
42912;SDS011;50720;54.324;18.558;2023-05-14T12:29:57;9.90;;;5.47;;
42912;SDS011;50720;54.324;18.558;2023-05-14T12:32:39;10.63;;;4.95;;
42912;SDS011;50720;54.324;18.558;2023-05-14T12:35:09;6.47;;;4.87;;
42912;SDS011;50720;54.324;18.558;2023-05-14T12:37:38;8.02;;;5.15;;
42912;SDS011;50720;54.324;18.558;2023-05-14T12:40:10;7.78;;;3.65;;
42912;SDS011;50720;54.324;18.558;2023-05-14T12:42:40;9.65;;;4.03;;
42912;SDS011;50720;54.324;18.558;2023-05-14T12:45:10;8.93;;;3.65;;
42912;SDS011;50720;54.324;18.558;2023-05-14T12:47:40;9.73;;;4.15;;
42912;SDS011;50720;54.324;18.558;2023-05-14T12:50:10;7.97;;;3.53;;
42912;SDS011;50720;54.324;18.558;2023-05-14T12:52:39;10.13;;;4.07;;
42912;SDS011;50720;54.324;18.558;2023-05-14T12:55:10;9.98;;;4.68;;
42912;SDS011;50720;54.324;18.558;2023-05-14T12:57:40;6.45;;;4.05;;
42912;SDS011;50720;54.324;18.558;2023-05-14T13:00:10;5.07;;;3.70;;
42912;SDS011;50720;54.324;18.558;2023-05-14T13:02:40;9.18;;;4.40;;
42912;SDS011;50720;54.324;18.558;2023-05-14T13:05:10;9.40;;;3.90;;
42912;SDS011;50720;54.324;18.558;2023-05-14T13:07:40;9.75;;;4.30;;
42912;SDS011;50720;54.324;18.558;2023-05-14T13:10:11;11.98;;;4.63;;
42912;SDS011;50720;54.324;18.558;2023-05-14T13:12:41;12.40;;;4.85;;
42912;SDS011;50720;54.324;18.558;2023-05-14T13:15:10;7.50;;;4.57;;
42912;SDS011;50720;54.324;18.558;2023-05-14T13:17:40;8.95;;;4.47;;
42912;SDS011;50720;54.324;18.558;2023-05-14T13:20:10;6.10;;;4.13;;
42912;SDS011;50720;54.324;18.558;2023-05-14T13:22:39;10.93;;;4.63;;
42912;SDS011;50720;54.324;18.558;2023-05-14T13:25:09;7.40;;;4.53;;
42912;SDS011;50720;54.324;18.558;2023-05-14T13:27:40;7.45;;;4.40;;
42912;SDS011;50720;54.324;18.558;2023-05-14T13:30:09;9.80;;;5.13;;
42912;SDS011;50720;54.324;18.558;2023-05-14T13:35:08;9.52;;;5.03;;
42912;SDS011;50720;54.324;18.558;2023-05-14T13:37:38;11.73;;;4.65;;
42912;SDS011;50720;54.324;18.558;2023-05-14T13:40:08;8.85;;;4.38;;
42912;SDS011;50720;54.324;18.558;2023-05-14T13:42:40;9.95;;;4.15;;
42912;SDS011;50720;54.324;18.558;2023-05-14T13:45:09;5.90;;;3.35;;
42912;SDS011;50720;54.324;18.558;2023-05-14T13:47:40;9.40;;;3.47;;
42912;SDS011;50720;54.324;18.558;2023-05-14T13:50:10;4.82;;;2.70;;
42912;SDS011;50720;54.324;18.558;2023-05-14T13:52:40;4.07;;;2.45;;
42912;SDS011;50720;54.324;18.558;2023-05-14T13:55:11;5.63;;;2.60;;
42912;SDS011;50720;54.324;18.558;2023-05-14T13:57:41;3.25;;;2.33;;
42912;SDS011;50720;54.324;18.558;2023-05-14T14:03:14;4.82;;;2.15;;
42912;SDS011;50720;54.324;18.558;2023-05-14T14:05:43;8.50;;;2.17;;
42912;SDS011;50720;54.324;18.558;2023-05-14T14:10:51;2.83;;;2.20;;
42912;SDS011;50720;54.324;18.558;2023-05-14T14:13:22;6.55;;;2.00;;
42912;SDS011;50720;54.324;18.558;2023-05-14T14:15:51;4.00;;;2.15;;
42912;SDS011;50720;54.324;18.558;2023-05-14T14:18:21;4.43;;;2.15;;
42912;SDS011;50720;54.324;18.558;2023-05-14T14:20:50;5.07;;;2.08;;
42912;SDS011;50720;54.324;18.558;2023-05-14T14:23:20;10.10;;;2.17;;
42912;SDS011;50720;54.324;18.558;2023-05-14T14:25:50;4.30;;;1.90;;
42912;SDS011;50720;54.324;18.558;2023-05-14T14:28:20;4.80;;;2.25;;
42912;SDS011;50720;54.324;18.558;2023-05-14T14:30:50;3.15;;;2.00;;
42912;SDS011;50720;54.324;18.558;2023-05-14T14:33:20;7.35;;;2.30;;
42912;SDS011;50720;54.324;18.558;2023-05-14T14:35:50;6.23;;;2.63;;
42912;SDS011;50720;54.324;18.558;2023-05-14T14:38:19;4.10;;;2.80;;
42912;SDS011;50720;54.324;18.558;2023-05-14T14:40:50;9.65;;;3.58;;
42912;SDS011;50720;54.324;18.558;2023-05-14T14:43:20;7.40;;;3.35;;
42912;SDS011;50720;54.324;18.558;2023-05-14T14:45:50;6.53;;;3.20;;
42912;SDS011;50720;54.324;18.558;2023-05-14T14:48:24;9.43;;;3.80;;
42912;SDS011;50720;54.324;18.558;2023-05-14T14:50:55;6.00;;;2.72;;
42912;SDS011;50720;54.324;18.558;2023-05-14T14:53:25;6.60;;;3.00;;
42912;SDS011;50720;54.324;18.558;2023-05-14T14:55:56;7.90;;;3.30;;
42912;SDS011;50720;54.324;18.558;2023-05-14T14:58:26;10.77;;;4.75;;
42912;SDS011;50720;54.324;18.558;2023-05-14T15:00:57;11.35;;;3.83;;
42912;SDS011;50720;54.324;18.558;2023-05-14T15:03:27;6.40;;;3.35;;
42912;SDS011;50720;54.324;18.558;2023-05-14T15:05:57;5.55;;;3.30;;
42912;SDS011;50720;54.324;18.558;2023-05-14T15:08:27;9.27;;;4.22;;
42912;SDS011;50720;54.324;18.558;2023-05-14T15:10:58;6.65;;;3.60;;
42912;SDS011;50720;54.324;18.558;2023-05-14T15:13:28;5.93;;;3.67;;